Terminal Aerodrome Forecast
Issued by NWS

Home | Current Version | Previous Version | Text Only | Print | Product List | Glossary On
Versions: 1 2 3 4 5 6 7 8 9 10 11 12 13 14
000
FTUS43 KMQT 182327
TAFIWD
TAF
KIWD 182327Z 1900/1924 12008KT P6SM BKN200
     FM190500 13011KT P6SM OVC100 WS010/16040KT
     FM191000 14012KT P6SM -SHRA OVC060 WS010/16040KT
     FM191400 16012G19KT P6SM -SHRA OVC040
     FM192200 18008KT P6SM -SHRA OVC030
      AMD LTD TO CLD VIS AND WIND=

USA.gov is the U.S. government's official web portal to all federal, state and local government web resources and services.